Time;durP1;ratioP1;P1;durP2;ratioP2;P2;SDS_P1;SDS_P2;PMS_P1;PMS_P2;Temp;Humidity;BMP_temperature;BMP_pressure;BME280_temperature;BME280_humidity;BME280_pressure;Samples;Min_cycle;Max_cycle;Signal;HPM_P1;HPM_P2
2022/05/25 00:01:08;;;;;;;16.95;5.60;;;;;;;29.12;30.53;100665.38;5081436;28;20028;-57
2022/05/25 00:03:36;;;;;;;13.85;5.25;;;;;;;28.85;31.36;100658.41;5074651;28;20048;-57
2022/05/25 00:06:06;;;;;;;16.30;5.28;;;;;;;28.93;31.26;100656.78;5074352;28;20039;-57
2022/05/25 00:08:32;;;;;;;15.02;4.75;;;;;;;29.05;30.16;100653.28;5074035;28;20495;-57
2022/05/25 00:10:59;;;;;;;13.50;4.70;;;;;;;28.83;29.93;100652.44;5084739;28;20036;-58
2022/05/25 00:13:26;;;;;;;13.45;4.68;;;;;;;28.68;29.72;100647.47;5094202;28;20503;-58
2022/05/25 00:15:52;;;;;;;13.93;5.75;;;;;;;28.58;30.64;100654.16;5094455;28;20038;-58
2022/05/25 00:18:19;;;;;;;12.45;4.82;;;;;;;28.62;30.73;100646.06;5094110;28;20020;-58
2022/05/25 00:20:45;;;;;;;14.45;5.35;;;;;;;28.66;30.52;100649.78;5093069;28;20032;-58
2022/05/25 00:23:11;;;;;;;12.60;5.00;;;;;;;28.42;30.27;100650.34;5088928;28;20046;-58
2022/05/25 00:25:40;;;;;;;16.48;5.53;;;;;;;28.49;31.37;100639.66;5093717;28;20111;-58
2022/05/25 00:28:09;;;;;;;11.27;4.45;;;;;;;28.36;31.23;100643.44;5093168;28;20125;-58
2022/05/25 00:30:36;;;;;;;13.02;4.90;;;;;;;28.28;30.71;100641.50;5093869;28;20108;-56
2022/05/25 00:33:02;;;;;;;15.07;5.15;;;;;;;27.82;30.81;100643.91;5093693;28;20067;-58
2022/05/25 00:35:31;;;;;;;12.43;5.20;;;;;;;27.67;31.16;100638.06;5092654;28;20055;-62
2022/05/25 00:37:58;;;;;;;14.60;5.80;;;;;;;27.73;31.82;100634.84;5093382;28;20468;-58
2022/05/25 00:40:40;;;;;;;16.45;5.50;;;;;;;27.58;32.60;100635.31;5083553;28;20434;-58
2022/05/25 00:43:08;;;;;;;14.07;4.97;;;;;;;27.47;32.35;100634.03;5080955;28;20032;-59
2022/05/25 00:45:39;;;;;;;17.00;5.45;;;;;;;27.51;32.17;100627.56;5093361;28;20348;-59
2022/05/25 00:48:08;;;;;;;13.05;5.00;;;;;;;27.32;32.37;100635.38;5089462;28;20028;-59
2022/05/25 00:53:20;;;;;;;13.48;5.38;;;;;;;27.14;33.37;100631.78;5083721;28;20461;-58
2022/05/25 00:55:47;;;;;;;18.30;5.10;;;;;;;27.08;32.70;100633.88;5075465;28;20044;-60
2022/05/25 00:58:13;;;;;;;17.20;5.50;;;;;;;27.03;32.91;100631.25;5089733;28;20082;-58
2022/05/25 01:00:40;;;;;;;17.70;5.55;;;;;;;26.95;33.82;100637.56;5083623;28;20034;-58
2022/05/25 01:03:10;;;;;;;15.80;5.30;;;;;;;26.71;33.32;100628.97;5078919;28;20029;-59
2022/05/25 01:05:58;;;;;;;18.77;5.15;;;;;;;26.52;33.33;100623.72;5073000;28;20035;-59
2022/05/25 01:08:59;;;;;;;16.05;5.07;;;;;;;26.50;34.47;100617.75;5087394;28;20021;-58
2022/05/25 01:11:51;;;;;;;22.25;5.60;;;;;;;25.91;34.51;100623.41;5084575;28;20380;-58
2022/05/25 01:14:38;;;;;;;18.08;5.53;;;;;;;25.95;35.04;100618.94;5092729;28;20557;-58
2022/05/25 01:17:42;;;;;;;18.15;5.32;;;;;;;25.95;34.87;100621.69;5091224;28;20043;-59
2022/05/25 01:20:22;;;;;;;16.23;5.50;;;;;;;25.64;34.62;100615.31;5061427;28;20036;-58
2022/05/25 01:23:24;;;;;;;16.00;5.28;;;;;;;25.86;34.37;100620.00;5092810;28;20089;-58
2022/05/25 01:26:02;;;;;;;16.00;5.03;;;;;;;25.56;33.76;100618.81;5030061;28;20313;-58
2022/05/25 01:28:48;;;;;;;17.63;5.60;;;;;;;25.44;34.04;100609.22;5066589;28;20033;-58
2022/05/25 01:31:25;;;;;;;17.20;4.47;;;;;;;25.32;33.75;100617.22;5072827;28;20502;-59
2022/05/25 01:34:04;;;;;;;11.02;4.43;;;;;;;25.18;32.65;100622.72;5079763;28;20059;-58
2022/05/25 01:36:48;;;;;;;17.52;4.93;;;;;;;25.17;33.23;100614.81;5080239;28;20605;-58
2022/05/25 01:39:19;;;;;;;12.63;5.13;;;;;;;24.89;33.71;100614.03;5086797;28;20444;-66
2022/05/25 01:41:54;;;;;;;12.88;4.97;;;;;;;25.05;33.63;100609.84;5091246;28;20062;-62
2022/05/25 01:44:25;;;;;;;14.55;4.97;;;;;;;24.91;33.45;100609.88;5074342;28;20032;-61
2022/05/25 01:47:01;;;;;;;15.60;4.22;;;;;;;24.86;34.24;100609.16;5090500;28;20020;-63
2022/05/25 01:49:43;;;;;;;15.40;5.00;;;;;;;24.85;34.15;100608.38;5085648;28;20016;-62
2022/05/25 01:52:14;;;;;;;11.93;4.80;;;;;;;24.86;34.04;100614.66;5072251;28;20021;-64
2022/05/25 01:54:48;;;;;;;15.43;4.45;;;;;;;24.99;33.70;100616.56;5071689;28;20033;-60
2022/05/25 01:57:16;;;;;;;14.75;4.53;;;;;;;25.16;33.51;100618.69;5071727;28;20024;-63
2022/05/25 01:59:45;;;;;;;14.50;5.28;;;;;;;24.96;33.15;100609.75;5073843;28;20066;-67
2022/05/25 02:05:00;;;;;;;17.35;5.18;;;;;;;25.33;33.32;100612.53;5072529;28;20035;-66
2022/05/25 02:08:03;;;;;;;15.05;5.40;;;;;;;25.55;32.39;100612.53;5071666;28;20024;-66
2022/05/25 02:10:50;;;;;;;13.70;4.53;;;;;;;25.68;31.98;100606.16;5072023;28;20032;-67
2022/05/25 02:13:43;;;;;;;13.73;4.53;;;;;;;26.24;31.31;100612.13;5072219;28;20078;-66
2022/05/25 02:16:40;;;;;;;14.05;4.65;;;;;;;26.67;30.48;100608.75;5072136;28;20056;-67
2022/05/25 02:19:27;;;;;;;14.80;4.82;;;;;;;26.90;30.00;100604.75;5072804;28;20477;-67
2022/05/25 02:22:05;;;;;;;13.82;4.82;;;;;;;27.01;30.01;100611.53;5091983;28;20020;-67
2022/05/25 02:24:35;;;;;;;15.55;5.70;;;;;;;27.01;30.68;100606.06;5092120;28;20042;-66
2022/05/25 02:27:15;;;;;;;18.15;5.35;;;;;;;27.01;30.49;100618.97;5091141;28;20085;-66
2022/05/25 02:29:50;;;;;;;14.60;4.65;;;;;;;26.92;30.68;100613.47;5072019;28;20036;-66
2022/05/25 02:32:26;;;;;;;11.50;4.25;;;;;;;27.14;30.25;100620.78;5072463;28;20361;-67
2022/05/25 02:34:54;;;;;;;12.27;4.72;;;;;;;26.64;31.16;100614.88;5077695;28;20565;-66
2022/05/25 02:37:25;;;;;;;18.60;5.85;;;;;;;26.96;30.97;100608.94;5078074;28;20468;-68
2022/05/25 02:39:54;;;;;;;15.38;4.78;;;;;;;26.96;31.18;100614.44;5088684;28;20036;-67
2022/05/25 02:42:21;;;;;;;17.92;5.70;;;;;;;27.09;30.84;100616.25;5074491;28;20417;-67
2022/05/25 02:44:47;;;;;;;12.82;5.40;;;;;;;26.79;31.02;100612.47;5084105;28;20067;-67
2022/05/25 02:47:13;;;;;;;20.70;5.45;;;;;;;26.69;30.77;100598.25;5083816;28;20361;-67
2022/05/25 02:49:40;;;;;;;12.35;4.60;;;;;;;26.69;31.11;100607.28;5071449;28;20025;-67
2022/05/25 02:52:08;;;;;;;14.25;4.47;;;;;;;26.55;31.40;100610.19;5072050;28;20032;-67
2022/05/25 02:54:35;;;;;;;17.63;5.15;;;;;;;26.13;31.93;100611.59;5090096;28;20067;-67
2022/05/25 02:57:02;;;;;;;12.63;4.03;;;;;;;26.13;31.53;100616.28;5093898;28;20114;-66
2022/05/25 02:59:28;;;;;;;16.10;5.47;;;;;;;25.59;32.62;100602.53;5087759;28;20055;-66
2022/05/25 03:01:54;;;;;;;16.27;5.43;;;;;;;25.27;33.60;100604.44;5075164;28;20102;-65
2022/05/25 03:04:21;;;;;;;13.13;4.90;;;;;;;24.82;34.70;100602.69;5083389;28;20380;-66
2022/05/25 03:06:47;;;;;;;19.33;5.50;;;;;;;24.41;34.82;100609.81;5094596;28;20044;-66
2022/05/25 03:09:13;;;;;;;11.93;4.55;;;;;;;24.08;35.65;100606.31;5087596;28;20021;-66
2022/05/25 03:11:41;;;;;;;15.93;5.47;;;;;;;23.87;36.71;100611.34;5087082;28;20035;-66
2022/05/25 03:14:07;;;;;;;17.75;5.30;;;;;;;23.44;36.69;100608.78;5090464;22;20064;-66
2022/05/25 03:16:34;;;;;;;12.27;4.78;;;;;;;23.37;37.58;100610.25;5083904;28;20486;-66
2022/05/25 03:19:00;;;;;;;16.65;5.53;;;;;;;23.22;37.71;100618.69;5095221;28;20055;-66
2022/05/25 03:21:26;;;;;;;16.70;5.28;;;;;;;22.76;38.69;100614.63;5084889;28;20024;-65
2022/05/25 03:23:53;;;;;;;19.08;5.32;;;;;;;22.82;38.71;100613.47;5073877;28;20111;-66
2022/05/25 03:26:19;;;;;;;20.10;5.88;;;;;;;22.57;38.89;100625.50;5080191;28;20064;-65
2022/05/25 03:28:45;;;;;;;16.02;5.20;;;;;;;22.50;39.25;100627.78;5071556;28;20063;-62
2022/05/25 03:31:12;;;;;;;16.52;4.80;;;;;;;22.31;38.74;100632.34;5074262;28;20060;-59
2022/05/25 03:33:38;;;;;;;18.20;5.32;;;;;;;21.92;38.84;100627.00;5074930;28;20103;-63
2022/05/25 03:36:05;;;;;;;13.88;4.72;;;;;;;21.94;39.58;100627.53;5072935;28;20041;-62
2022/05/25 03:38:31;;;;;;;13.52;4.78;;;;;;;21.79;39.95;100629.28;5074242;28;20028;-62
2022/05/25 03:41:00;;;;;;;17.20;4.55;;;;;;;21.48;39.79;100628.72;5072270;28;20029;-63
2022/05/25 03:43:32;;;;;;;13.60;4.85;;;;;;;21.52;40.09;100639.88;5074563;28;20056;-65
2022/05/25 03:45:58;;;;;;;12.15;4.50;;;;;;;21.30;40.52;100638.38;5067772;28;20025;-64
2022/05/25 03:48:24;;;;;;;22.45;5.57;;;;;;;21.06;41.35;100632.78;5076990;28;20081;-65
2022/05/25 03:50:51;;;;;;;18.85;5.22;;;;;;;20.93;42.41;100633.41;5092853;28;20030;-65
2022/05/25 03:53:17;;;;;;;17.45;5.72;;;;;;;20.91;42.36;100642.94;5074381;28;20024;-65
2022/05/25 03:55:44;;;;;;;19.60;5.47;;;;;;;20.65;42.82;100632.16;5070180;28;20039;-65
2022/05/25 03:58:10;;;;;;;19.35;5.40;;;;;;;20.49;43.08;100639.56;5072921;28;20024;-66
2022/05/25 04:00:37;;;;;;;19.52;5.45;;;;;;;20.40;43.77;100635.75;5073694;28;20059;-66
2022/05/25 04:03:04;;;;;;;17.23;5.38;;;;;;;20.39;44.12;100650.44;5072740;28;20822;-66
2022/05/25 04:05:32;;;;;;;17.77;5.78;;;;;;;20.15;44.60;100647.47;5070971;28;20078;-65
2022/05/25 04:08:00;;;;;;;21.50;6.55;;;;;;;20.31;44.43;100643.63;5065656;28;20032;-65
2022/05/25 04:10:27;;;;;;;21.02;6.07;;;;;;;20.29;44.00;100645.84;5072018;28;20039;-65
2022/05/25 04:12:54;;;;;;;18.33;5.68;;;;;;;19.98;44.17;100644.25;5065701;28;20187;-66
2022/05/25 04:15:24;;;;;;;23.75;6.43;;;;;;;19.92;44.69;100645.34;5052586;28;20047;-64
2022/05/25 04:17:50;;;;;;;22.15;5.75;;;;;;;19.87;44.66;100645.34;5054691;28;20072;-65
2022/05/25 04:20:18;;;;;;;24.33;5.65;;;;;;;19.76;45.28;100647.25;5063989;28;20031;-65
2022/05/25 04:22:45;;;;;;;21.85;5.47;;;;;;;19.59;45.69;100647.50;5070530;28;20354;-64
2022/05/25 04:25:13;;;;;;;19.77;5.50;;;;;;;19.73;45.52;100647.81;5053771;28;20176;-65
2022/05/25 04:27:42;;;;;;;19.50;5.22;;;;;;;19.52;46.37;100646.94;5053447;28;20465;-64
2022/05/25 04:30:13;;;;;;;17.50;5.95;;;;;;;19.46;47.19;100637.16;5053891;28;20107;-64
2022/05/25 04:32:39;;;;;;;19.90;5.85;;;;;;;19.37;47.19;100652.34;5053346;28;20480;-64
2022/05/25 04:35:07;;;;;;;21.30;5.65;;;;;;;19.26;46.70;100644.16;5039139;28;20087;-64
2022/05/25 04:40:22;;;;;;;21.88;6.03;;;;;;;19.28;46.93;100648.53;5073566;28;20032;-64
2022/05/25 04:42:49;;;;;;;22.05;5.13;;;;;;;19.01;47.99;100654.16;5073308;28;20028;-64
2022/05/25 04:45:15;;;;;;;18.08;6.13;;;;;;;19.13;47.67;100657.44;5072236;28;20426;-63
2022/05/25 04:47:42;;;;;;;19.02;6.15;;;;;;;19.05;47.73;100647.13;5039788;28;20022;-64
2022/05/25 04:50:10;;;;;;;20.05;5.80;;;;;;;19.09;47.10;100656.34;5052435;28;20025;-64
2022/05/25 04:52:38;;;;;;;15.77;5.53;;;;;;;18.78;47.29;100663.56;5045888;28;20026;-64
2022/05/25 04:55:06;;;;;;;14.90;6.07;;;;;;;18.81;47.27;100663.03;5033219;28;20036;-64
2022/05/25 04:57:32;;;;;;;23.02;5.65;;;;;;;18.83;47.31;100660.88;5032982;28;20060;-64
2022/05/25 05:00:01;;;;;;;19.42;5.22;;;;;;;18.97;46.91;100667.44;5033118;28;20130;-63
2022/05/25 05:02:29;;;;;;;16.92;5.22;;;;;;;18.76;47.68;100665.72;5053470;28;20048;-64
2022/05/25 05:04:56;;;;;;;27.58;6.07;;;;;;;18.95;47.99;100669.59;5052105;28;20029;-64
2022/05/25 05:07:31;;;;;;;20.70;5.90;;;;;;;18.66;48.87;100674.59;5044115;28;20025;-63
2022/05/25 05:09:58;;;;;;;19.65;6.25;;;;;;;18.71;47.81;100674.63;5051476;28;20037;-63
2022/05/25 05:12:24;;;;;;;24.17;6.28;;;;;;;18.53;48.14;100673.16;5052550;28;20570;-63
2022/05/25 05:14:50;;;;;;;17.67;5.55;;;;;;;18.30;48.88;100673.56;5051246;28;20049;-64
2022/05/25 05:17:18;;;;;;;18.48;6.15;;;;;;;18.35;48.81;100679.03;5050968;28;20025;-64
2022/05/25 05:19:44;;;;;;;14.48;5.25;;;;;;;18.32;49.62;100682.25;5049102;28;20033;-64
2022/05/25 05:22:10;;;;;;;19.30;5.75;;;;;;;18.50;48.94;100687.25;5064559;28;20036;-63
2022/05/25 05:24:36;;;;;;;26.25;6.07;;;;;;;18.46;49.33;100686.13;5032632;28;20026;-64
2022/05/25 05:27:04;;;;;;;17.40;5.38;;;;;;;18.31;48.92;100681.44;5051868;28;20021;-64
2022/05/25 05:29:30;;;;;;;23.00;5.88;;;;;;;18.29;49.36;100691.72;5050198;28;20016;-64
2022/05/25 05:31:58;;;;;;;23.27;5.82;;;;;;;18.18;49.82;100684.59;5052093;28;20518;-64
2022/05/25 05:34:28;;;;;;;27.30;6.30;;;;;;;18.03;50.79;100695.31;5050965;28;20234;-64
2022/05/25 05:37:16;;;;;;;23.23;6.15;;;;;;;17.67;52.26;100692.28;5049327;28;20095;-64
2022/05/25 05:39:47;;;;;;;25.70;6.35;;;;;;;17.95;51.46;100691.19;5050857;28;20599;-65
2022/05/25 05:42:17;;;;;;;18.95;5.90;;;;;;;17.92;51.48;100694.41;5050766;28;20056;-64
2022/05/25 05:44:49;;;;;;;23.17;6.38;;;;;;;17.90;51.02;100697.38;5050950;28;20028;-63
2022/05/25 05:47:20;;;;;;;23.60;5.78;;;;;;;17.87;50.98;100707.91;5049580;28;20037;-64
2022/05/25 05:49:47;;;;;;;21.38;5.60;;;;;;;17.80;50.61;100702.72;5050517;28;20086;-64
2022/05/25 05:52:15;;;;;;;23.10;5.82;;;;;;;17.76;50.87;100701.59;5051848;28;20044;-63
2022/05/25 05:54:43;;;;;;;28.42;5.80;;;;;;;17.90;50.46;100696.56;5050804;28;20040;-64
2022/05/25 05:57:09;;;;;;;22.80;6.07;;;;;;;17.82;50.71;100694.31;5050923;28;20028;-63
2022/05/25 05:59:38;;;;;;;21.30;5.82;;;;;;;17.82;50.75;100697.03;5050352;28;20074;-64
2022/05/25 06:02:06;;;;;;;25.75;6.65;;;;;;;17.65;51.23;100697.94;5048087;28;20033;-63
2022/05/25 06:04:33;;;;;;;19.80;6.13;;;;;;;17.81;50.80;100703.53;5051997;28;20048;-63
2022/05/25 06:06:59;;;;;;;19.77;6.20;;;;;;;17.94;49.97;100703.13;5050790;28;20399;-63
2022/05/25 06:09:26;;;;;;;21.25;6.43;;;;;;;17.88;49.32;100704.16;5051540;28;20108;-63
2022/05/25 06:11:52;;;;;;;20.30;6.60;;;;;;;17.71;49.33;100698.78;5050635;28;20561;-63
2022/05/25 06:14:19;;;;;;;22.83;6.57;;;;;;;17.60;49.72;100692.50;5034753;28;20052;-63
2022/05/25 06:19:33;;;;;;;23.05;6.70;;;;;;;17.62;49.90;100679.50;5033494;28;20114;-61
2022/05/25 06:22:02;;;;;;;25.85;5.47;;;;;;;17.61;49.92;100683.28;5031551;28;20036;-61
2022/05/25 06:24:33;;;;;;;18.77;5.28;;;;;;;17.57;49.42;100679.47;5051762;28;20036;-61
2022/05/25 06:27:00;;;;;;;20.80;5.95;;;;;;;17.56;49.34;100682.44;5051329;28;20025;-61
2022/05/25 06:29:26;;;;;;;21.65;5.75;;;;;;;17.39;49.88;100671.72;5048285;28;20097;-61
2022/05/25 06:31:52;;;;;;;20.67;5.03;;;;;;;17.58;49.15;100681.09;5051490;28;20063;-61
2022/05/25 06:34:19;;;;;;;24.75;6.15;;;;;;;17.74;48.81;100687.50;5033460;28;20064;-61
2022/05/25 06:36:48;;;;;;;18.83;6.50;;;;;;;17.67;48.46;100684.97;5050322;28;20397;-61
2022/05/25 06:39:15;;;;;;;17.98;4.50;;;;;;;17.57;48.81;100687.56;5051793;28;20516;-61
2022/05/25 06:41:41;;;;;;;17.58;5.75;;;;;;;17.60;48.05;100687.09;5049776;28;20029;-61
2022/05/25 06:44:07;;;;;;;20.67;5.50;;;;;;;17.57;48.48;100684.88;5051197;28;20568;-61
2022/05/25 06:46:34;;;;;;;16.40;5.20;;;;;;;17.59;48.61;100692.72;5049972;28;20083;-61
2022/05/25 06:49:00;;;;;;;17.73;5.15;;;;;;;17.59;48.81;100690.84;5050158;28;20071;-61
2022/05/25 06:51:29;;;;;;;17.95;5.38;;;;;;;17.72;48.71;100692.38;5051282;28;20024;-61
2022/05/25 06:53:55;;;;;;;22.58;5.38;;;;;;;17.78;48.68;100679.69;5049276;28;20031;-61
2022/05/25 06:56:24;;;;;;;19.50;5.47;;;;;;;17.69;49.06;100682.00;5036536;28;20516;-60
2022/05/25 06:58:54;;;;;;;20.08;5.85;;;;;;;17.53;49.37;100683.75;5036516;28;20029;-60
2022/05/25 07:01:22;;;;;;;18.27;4.97;;;;;;;17.64;49.11;100677.34;5056893;28;20025;-61
2022/05/25 07:03:49;;;;;;;22.40;6.25;;;;;;;17.75;48.81;100683.72;5056983;28;20512;-60
2022/05/25 07:06:18;;;;;;;19.25;5.40;;;;;;;17.55;49.54;100681.63;5056046;28;20078;-60
2022/05/25 07:08:45;;;;;;;19.35;6.10;;;;;;;17.52;49.65;100679.41;5056555;28;20608;-61
2022/05/25 07:11:12;;;;;;;24.52;5.53;;;;;;;17.58;49.24;100672.97;5054331;28;20021;-60
2022/05/25 07:13:40;;;;;;;22.75;5.97;;;;;;;17.65;49.11;100680.88;5056066;28;20543;-61
2022/05/25 07:16:10;;;;;;;21.40;5.78;;;;;;;17.50;49.54;100676.16;5055904;28;20071;-60
2022/05/25 07:18:37;;;;;;;19.52;5.57;;;;;;;17.29;50.16;100682.41;5044784;28;20126;-60
2022/05/25 07:21:18;;;;;;;25.58;6.18;;;;;;;17.34;50.29;100682.47;5050322;28;20516;-60
2022/05/25 07:23:48;;;;;;;30.55;6.28;;;;;;;17.30;50.48;100684.06;5050887;28;20040;-60
2022/05/25 07:26:15;;;;;;;23.58;6.00;;;;;;;17.04;51.44;100683.75;5055892;28;20029;-60
2022/05/25 07:28:41;;;;;;;22.17;5.57;;;;;;;16.88;51.97;100684.66;5050797;28;20200;-60
2022/05/25 07:31:37;;;;;;;23.70;6.78;;;;;;;16.71;53.11;100687.44;5050527;28;20089;-60
2022/05/25 07:34:10;;;;;;;19.13;6.43;;;;;;;16.87;52.65;100688.41;5051030;28;20021;-60
2022/05/25 07:36:39;;;;;;;24.90;5.85;;;;;;;16.94;52.88;100683.66;5048691;28;20033;-60
2022/05/25 07:39:08;;;;;;;23.80;5.97;;;;;;;16.97;54.08;100680.44;5050809;28;20029;-60
2022/05/25 07:41:39;;;;;;;27.98;6.10;;;;;;;16.91;54.59;100680.63;5049378;28;20453;-60
2022/05/25 07:44:10;;;;;;;21.70;6.10;;;;;;;16.77;54.84;100675.59;5053573;28;20033;-60
2022/05/25 07:46:36;;;;;;;21.20;5.38;;;;;;;17.02;54.16;100669.69;5053765;28;20029;-60
2022/05/25 07:49:03;;;;;;;21.63;5.72;;;;;;;16.91;55.12;100676.03;5042703;28;20024;-60
2022/05/25 07:51:29;;;;;;;22.05;6.28;;;;;;;16.97;55.44;100672.31;5054316;28;20388;-60
2022/05/25 07:53:58;;;;;;;23.95;6.72;;;;;;;16.74;56.39;100700.41;5053310;28;20525;-60
2022/05/25 07:56:31;;;;;;;24.02;5.75;;;;;;;16.99;55.92;100663.94;5052353;28;20044;-60
2022/05/25 07:59:01;;;;;;;23.27;5.95;;;;;;;16.89;56.36;100675.47;5052263;28;20029;-60
2022/05/25 08:07:02;;;;;;;30.08;7.45;;;;;;;16.88;56.66;100673.84;5051473;28;20094;-60
2022/05/25 08:09:30;;;;;;;25.38;5.85;;;;;;;16.91;56.54;100669.81;5053944;28;20044;-60
2022/05/25 08:11:56;;;;;;;26.77;6.45;;;;;;;16.92;56.55;100674.97;5052176;28;20673;-60
2022/05/25 08:14:25;;;;;;;23.52;7.20;;;;;;;17.09;56.52;100670.28;5051960;28;20132;-60
2022/05/25 08:16:53;;;;;;;30.58;7.28;;;;;;;17.04;56.37;100658.59;5051416;28;20096;-60
2022/05/25 08:19:19;;;;;;;29.60;6.82;;;;;;;17.14;56.17;100656.84;5052925;28;20090;-60
2022/05/25 08:21:47;;;;;;;20.58;5.88;;;;;;;17.07;56.23;100666.22;5048712;28;20063;-60
2022/05/25 08:24:14;;;;;;;17.40;5.60;;;;;;;17.25;56.12;100659.66;5033674;28;20029;-60
2022/05/25 08:26:40;;;;;;;27.52;5.97;;;;;;;17.03;56.64;100654.28;5052195;28;20469;-60
2022/05/25 08:29:06;;;;;;;25.58;6.25;;;;;;;16.95;56.69;100660.94;5053324;28;20033;-60
2022/05/25 08:31:33;;;;;;;26.95;6.03;;;;;;;16.80;57.54;100653.47;5053443;28;20491;-60
2022/05/25 08:33:59;;;;;;;29.48;7.90;;;;;;;16.85;57.38;100660.81;5051953;28;20044;-60
2022/05/25 08:36:25;;;;;;;27.33;6.95;;;;;;;16.85;57.01;100652.72;5053059;28;20036;-60
2022/05/25 08:38:55;;;;;;;25.80;6.13;;;;;;;16.89;56.99;100643.84;5051787;28;20064;-60
2022/05/25 08:41:28;;;;;;;25.08;6.00;;;;;;;17.06;56.60;100651.06;5052027;28;20071;-60
2022/05/25 08:43:56;;;;;;;21.85;6.07;;;;;;;17.28;56.11;100651.84;5053166;28;20060;-60
2022/05/25 08:46:24;;;;;;;26.73;6.70;;;;;;;17.18;55.92;100642.81;5051815;28;20040;-60
2022/05/25 08:48:51;;;;;;;25.23;5.80;;;;;;;17.06;56.22;100630.25;5053294;28;20112;-60
2022/05/25 08:51:22;;;;;;;26.27;6.05;;;;;;;16.99;56.16;100643.16;5052023;28;20108;-60
2022/05/25 08:53:48;;;;;;;25.00;6.97;;;;;;;16.87;56.57;100642.47;5052291;28;20067;-60
2022/05/25 08:56:36;;;;;;;26.77;5.95;;;;;;;16.89;56.30;100643.03;5051355;28;20037;-60
2022/05/25 08:59:21;;;;;;;18.58;5.10;;;;;;;16.86;56.41;100641.66;5053254;28;20032;-60
2022/05/25 09:01:58;;;;;;;26.10;6.20;;;;;;;16.90;56.32;100641.97;5042642;28;20368;-60
2022/05/25 09:04:40;;;;;;;16.58;6.03;;;;;;;16.89;56.14;100641.16;5033151;28;20124;-60
2022/05/25 09:07:21;;;;;;;20.88;5.18;;;;;;;16.90;56.21;100639.25;5051218;28;20021;-60
2022/05/25 09:09:49;;;;;;;19.60;5.88;;;;;;;16.88;56.11;100652.22;5051203;28;20104;-60
2022/05/25 09:12:37;;;;;;;20.42;6.22;;;;;;;16.85;56.28;100658.94;5051888;28;20082;-60
2022/05/25 09:15:20;;;;;;;18.85;6.28;;;;;;;16.93;56.01;100657.66;5050391;28;20402;-60
2022/05/25 09:18:03;;;;;;;30.77;7.07;;;;;;;16.87;54.95;100651.38;5032540;28;20025;-60
2022/05/25 09:20:42;;;;;;;24.55;6.78;;;;;;;16.85;55.21;100652.72;5037013;28;20021;-59
2022/05/25 09:23:10;;;;;;;22.73;6.28;;;;;;;16.88;55.38;100657.63;5052526;28;20025;-60
2022/05/25 09:25:38;;;;;;;24.13;5.45;;;;;;;16.91;55.89;100653.59;5051264;28;20037;-60
2022/05/25 09:28:20;;;;;;;23.80;5.70;;;;;;;16.60;57.40;100656.72;5052545;28;20037;-60
2022/05/25 09:31:01;;;;;;;25.35;6.22;;;;;;;16.54;57.32;100657.69;5050114;28;20104;-60
2022/05/25 09:33:51;;;;;;;29.58;7.07;;;;;;;16.68;57.30;100657.34;5064829;28;20111;-60
2022/05/25 09:36:25;;;;;;;28.48;7.32;;;;;;;16.63;57.83;100655.38;5041882;28;20087;-59
2022/05/25 09:39:05;;;;;;;26.35;5.30;;;;;;;16.48;57.33;100664.09;5072574;28;20100;-59
2022/05/25 09:41:33;;;;;;;16.88;5.60;;;;;;;16.50;57.76;100653.88;5055234;28;20032;-59
2022/05/25 09:44:03;;;;;;;23.23;6.35;;;;;;;16.54;56.97;100657.69;5072232;28;20016;-59
2022/05/25 09:46:30;;;;;;;25.65;6.18;;;;;;;16.55;56.49;100656.66;5071048;28;20027;-59
2022/05/25 09:49:02;;;;;;;17.55;5.70;;;;;;;16.77;56.56;100645.06;5052185;28;20112;-59
2022/05/25 09:51:33;;;;;;;22.13;5.55;;;;;;;16.56;56.98;100658.28;5049989;28;20436;-59
2022/05/25 09:54:31;;;;;;;22.05;6.45;;;;;;;16.58;56.58;100653.44;5051764;28;20469;-60
2022/05/25 09:57:02;;;;;;;20.10;5.85;;;;;;;16.64;56.87;100657.81;5032294;28;20463;-59
2022/05/25 09:59:34;;;;;;;15.55;5.18;;;;;;;16.59;56.80;100656.94;5052418;28;20492;-59
2022/05/25 10:02:01;;;;;;;18.85;5.95;;;;;;;16.58;56.89;100663.41;5071541;28;20086;-59
2022/05/25 10:04:56;;;;;;;19.95;6.93;;;;;;;16.78;56.16;100660.22;5060011;28;20428;-59
2022/05/25 10:07:38;;;;;;;24.13;6.47;;;;;;;16.64;56.38;100663.22;5051850;28;20112;-59
2022/05/25 10:10:09;;;;;;;17.67;4.68;;;;;;;16.52;56.59;100657.13;5045419;28;20430;-59
2022/05/25 10:12:44;;;;;;;17.00;4.85;;;;;;;16.48;56.54;100658.69;5047757;28;20158;-59
2022/05/25 10:15:15;;;;;;;17.13;4.60;;;;;;;16.40;56.81;100661.00;5050916;28;20045;-59
2022/05/25 10:17:46;;;;;;;16.70;4.57;;;;;;;16.41;56.26;100663.47;5044537;28;20032;-59
2022/05/25 10:20:18;;;;;;;14.73;4.35;;;;;;;16.46;55.98;100657.31;5031680;28;20078;-59
2022/05/25 10:22:45;;;;;;;11.77;4.30;;;;;;;16.42;55.95;100659.69;5039724;28;20033;-59
2022/05/25 10:25:25;;;;;;;13.50;4.82;;;;;;;16.41;55.92;100655.34;5051805;28;20029;-59
2022/05/25 10:27:52;;;;;;;12.50;3.83;;;;;;;16.35;56.21;100653.66;5050426;28;20025;-59
2022/05/25 10:36:45;;;;;;;9.82;3.03;;;;;;;16.30;54.96;100643.59;5049437;28;20447;-59
2022/05/25 10:39:31;;;;;;;5.80;2.30;;;;;;;16.24;53.68;100647.28;5050238;28;20493;-59
2022/05/25 10:42:15;;;;;;;;;;;;;;;16.26;54.40;100649.72;5043508;28;20041;-59
2022/05/25 10:45:05;;;;;;;7.32;2.45;;;;;;;16.30;53.94;100646.28;5049396;28;19966;-59
2022/05/25 10:47:57;;;;;;;5.68;2.67;;;;;;;16.25;54.13;100648.91;5051070;28;20029;-59
2022/05/25 10:50:52;;;;;;;5.07;2.08;;;;;;;16.30;52.87;100642.78;5048853;28;20692;-59
2022/05/25 10:53:39;;;;;;;4.43;2.15;;;;;;;16.30;53.73;100640.88;5033291;28;20033;-59
2022/05/25 10:56:17;;;;;;;6.75;2.20;;;;;;;16.41;53.36;100641.03;5038641;28;20044;-59
2022/05/25 10:59:01;;;;;;;5.53;2.20;;;;;;;16.36;53.41;100639.88;5048155;28;20025;-59
2022/05/25 11:01:46;;;;;;;5.57;2.10;;;;;;;16.31;53.47;100636.31;5046899;28;20039;-59
2022/05/25 11:04:37;;;;;;;5.25;2.22;;;;;;;16.26;53.30;100638.94;5075941;22;20052;-59
2022/05/25 11:07:30;;;;;;;6.32;2.30;;;;;;;16.46;53.61;100636.53;5051158;28;20159;-59
2022/05/25 11:10:02;;;;;;;5.45;2.28;;;;;;;16.39;53.22;100645.88;5056541;28;20055;-59
2022/05/25 11:12:43;;;;;;;4.95;2.08;;;;;;;16.25;53.35;100642.69;5070357;28;20021;-59
2022/05/25 11:15:22;;;;;;;3.60;2.10;;;;;;;16.27;53.59;100638.69;5064313;28;20029;-59
2022/05/25 11:18:00;;;;;;;6.93;2.20;;;;;;;16.27;53.43;100636.00;5073195;28;20082;-59
2022/05/25 11:20:41;;;;;;;7.15;2.05;;;;;;;16.34;53.42;100646.63;5074626;28;20032;-59
2022/05/25 11:23:28;;;;;;;4.95;2.15;;;;;;;16.27;53.70;100640.59;5074868;28;20504;-59
2022/05/25 11:26:31;;;;;;;3.78;1.90;;;;;;;16.17;53.85;100641.25;5068698;28;20054;-59
2022/05/25 11:29:11;;;;;;;3.30;1.90;;;;;;;16.14;53.96;100640.91;5062392;28;20416;-59
2022/05/25 11:32:00;;;;;;;5.18;2.20;;;;;;;16.19;53.94;100638.28;5064485;28;20056;-59
2022/05/25 11:34:48;;;;;;;5.97;2.38;;;;;;;16.08;54.58;100648.94;5064978;28;20025;-59
2022/05/25 11:37:40;;;;;;;6.95;2.45;;;;;;;16.03;54.56;100646.16;5063852;28;20029;-59
2022/05/25 11:40:18;;;;;;;3.95;2.33;;;;;;;16.00;54.66;100649.38;5037213;28;20098;-59
2022/05/25 11:43:02;;;;;;;6.63;3.00;;;;;;;15.99;54.57;100653.13;5065979;28;20029;-61
2022/05/25 11:45:52;;;;;;;5.20;2.10;;;;;;;16.07;55.02;100647.31;5064058;28;20503;-60
2022/05/25 11:48:24;;;;;;;10.55;3.20;;;;;;;15.92;54.81;100660.56;5072520;28;20054;-60
2022/05/25 11:51:04;;;;;;;6.53;2.63;;;;;;;15.98;54.57;100656.88;5054832;28;20025;-59
2022/05/25 11:53:39;;;;;;;11.02;2.40;;;;;;;15.89;55.16;100654.84;5056636;28;20021;-60
2022/05/25 11:56:08;;;;;;;;;;;;;;;15.88;54.95;100654.03;5059242;28;20032;-60
2022/05/25 11:58:55;;;;;;;7.03;2.58;;;;;;;16.05;54.58;100656.72;5065520;28;19919;-60
2022/05/25 12:01:38;;;;;;;3.47;2.20;;;;;;;15.87;54.99;100651.56;5034798;28;20021;-59
2022/05/25 12:04:29;;;;;;;6.03;2.50;;;;;;;15.79;55.42;100655.50;5034435;28;20157;-59
2022/05/25 12:07:19;;;;;;;6.97;2.85;;;;;;;15.75;55.52;100657.03;5044697;28;20032;-59